메인 페이지
METAR-TAF:

METAR-TAF

공항 :

Plainview, 텍사스, 미국

위도: 34-10-05N, 경도: 101-43-02W, 고도: 1028m

현재 날씨관측

예보는 25분 전, 05:15시(UTC)에 발표되었습니다.
무풍
온도 23°C
습도 69%
기압 1018 hPa
시정: 16.1km
맑음

METAR: KPVW 240515Z AUTO 00000KT 10SM CLR 23/17 A3007 RMK AO2 LTG DSNT N T02310165

시각: 00:40 (05:40 UTC)

예보

예보는 20분 전, 05:20시(UTC)에 발표되었습니다.
예보 대상 시간: 24일 06시부터 25일 06시까지 (UTC)
남남동7kt
시정: 10km
고도 6000ft 상공 구름 조금
고도 25000ft 상공 구름 많음, 적란운.
시계 내 뇌우
일시적
24일 06시부터 24일 08시까지 (UTC)
여러 방향의 바람 20kt, 순간 최대 풍속 30kt
시정: 8.0km
고도 5000ft 상공 흐림, 적란운.
뇌우, 비
24일 1100시부터 (UTC)
남동5kt
시정: 8.0km
고도 1000ft 상공 구름 많음
박무

TAF: KPVW 240520Z 2406/2506 16007KT P6SM VCTS FEW060 BKN250CB TEMPO 2406/2408 VRB20G30KT 5SM TSRA OVC050CB FM241100 14005KT 5SM BR BKN010

4,000개 이상의 공항 관측 자료 및 예보 (METAR 및 TAF 보고).

지도상에서 검색 가능한 기상관측소가 노란 점과 빨간 점으로 표시되어 있습니다.

기상관측소 명을 보려면 표시 위로 마우스를 이동하세요.

날씨 관측과 예보를 보려면 클릭하세요.

지도 변경 : 확대하려면 엑스 표시가 있는 녹색 버튼, 축소하려면 빼기 표시가 있는 녹색 버튼, 다음 페이지의 지도를 보려면 녹색 화살표를 클릭하세요.


METAR-TAF: